createdAt,value
2019-03-27T00:00:02.969Z,54.83
2019-03-27T00:02:36.043Z,54.33
2019-03-27T00:05:07.729Z,53.43
2019-03-27T00:07:39.357Z,54.40
2019-03-27T00:10:23.286Z,50.70
2019-03-27T00:12:54.751Z,49.93
2019-03-27T00:15:26.407Z,52.73
2019-03-27T00:17:57.982Z,50.87
2019-03-27T00:20:29.728Z,48.27
2019-03-27T00:23:01.398Z,48.20
2019-03-27T00:25:33.143Z,55.40
2019-03-27T00:28:05.002Z,49.80
2019-03-27T00:30:36.867Z,50.27
2019-03-27T00:33:08.316Z,49.10
2019-03-27T00:35:40.194Z,46.93
2019-03-27T00:38:11.851Z,48.50
2019-03-27T00:40:44.721Z,50.23
2019-03-27T00:43:16.481Z,49.17
2019-03-27T00:45:47.963Z,50.87
2019-03-27T00:48:19.916Z,52.17
2019-03-27T00:50:51.574Z,52.00
2019-03-27T00:53:23.433Z,49.47
2019-03-27T00:55:55.187Z,48.93
2019-03-27T00:58:26.947Z,47.93
2019-03-27T01:01:07.186Z,47.07
2019-03-27T01:03:38.762Z,47.27
2019-03-27T01:06:11.343Z,48.00
2019-03-27T01:08:42.979Z,48.37
2019-03-27T01:11:14.866Z,45.90
2019-03-27T01:13:46.413Z,46.20
2019-03-27T01:16:19.632Z,48.57
2019-03-27T01:18:51.163Z,50.33
2019-03-27T01:21:22.824Z,49.17
2019-03-27T01:23:54.564Z,52.13
2019-03-27T01:26:26.449Z,49.03
2019-03-27T01:28:58.007Z,49.63
2019-03-27T01:31:29.868Z,48.17
2019-03-27T01:34:01.843Z,47.93
2019-03-27T01:36:33.792Z,45.83
2019-03-27T01:39:06.779Z,44.23
2019-03-27T01:41:38.335Z,44.30
2019-03-27T01:44:09.963Z,44.97
2019-03-27T01:46:41.969Z,45.40
2019-03-27T01:49:13.602Z,46.63
2019-03-27T01:51:45.282Z,46.73
2019-03-27T01:54:17.240Z,45.73
2019-03-27T01:56:48.903Z,46.53
2019-03-27T01:59:20.342Z,45.07
2019-03-27T02:01:51.918Z,46.03
2019-03-27T02:04:23.681Z,44.87
2019-03-27T02:06:55.542Z,44.77
2019-03-27T02:09:28.815Z,45.23
2019-03-27T02:12:00.595Z,45.67
2019-03-27T02:14:32.136Z,44.73
2019-03-27T02:17:03.806Z,44.70
2019-03-27T02:19:35.668Z,44.17
2019-03-27T02:22:08.678Z,44.87
2019-03-27T02:24:40.390Z,45.67
2019-03-27T02:27:12.182Z,45.50
2019-03-27T02:29:43.614Z,44.83
2019-03-27T02:32:15.176Z,47.67
2019-03-27T02:34:47.015Z,45.13
2019-03-27T02:37:18.820Z,47.10
2019-03-27T02:39:52.322Z,44.70
2019-03-27T02:42:23.969Z,46.97
2019-03-27T02:44:55.834Z,45.10
2019-03-27T02:47:27.486Z,48.50
2019-03-27T02:49:59.157Z,47.83
2019-03-27T02:52:32.219Z,46.83
2019-03-27T02:55:05.253Z,44.60
2019-03-27T02:57:36.887Z,47.37
2019-03-27T03:00:12.081Z,46.33
2019-03-27T03:02:44.096Z,50.40
2019-03-27T03:05:15.959Z,48.07
2019-03-27T03:07:47.384Z,46.60
2019-03-27T03:10:18.947Z,47.30
2019-03-27T03:12:50.826Z,48.03
2019-03-27T03:15:23.075Z,47.27
2019-03-27T03:17:54.652Z,48.37
2019-03-27T03:20:26.310Z,49.43
2019-03-27T03:22:57.950Z,47.23
2019-03-27T03:25:29.708Z,47.30
2019-03-27T03:28:02.718Z,47.10
2019-03-27T03:30:34.357Z,46.70
2019-03-27T03:33:06.130Z,45.47
2019-03-27T03:35:38.091Z,46.63
2019-03-27T03:38:09.687Z,44.90
2019-03-27T03:40:42.528Z,46.20
2019-03-27T03:43:16.589Z,46.43
2019-03-27T03:45:48.310Z,43.63
2019-03-27T03:48:19.947Z,46.17
2019-03-27T03:50:51.617Z,46.10
2019-03-27T03:53:23.710Z,47.67
2019-03-27T03:55:55.449Z,46.03
2019-03-27T03:58:27.310Z,47.97
2019-03-27T04:00:59.690Z,44.60
2019-03-27T04:03:32.762Z,43.90
2019-03-27T04:06:04.125Z,59.67
2019-03-27T04:08:35.681Z,48.47
2019-03-27T04:11:07.546Z,46.43
2019-03-27T04:13:39.212Z,50.30
2019-03-27T04:16:11.067Z,64.97
2019-03-27T04:18:42.624Z,73.93
2019-03-27T04:21:14.156Z,78.47
2019-03-27T04:23:46.039Z,77.20
2019-03-27T04:26:17.610Z,70.50
2019-03-27T04:28:49.028Z,59.40
2019-03-27T04:31:20.916Z,60.60
2019-03-27T04:33:52.767Z,61.07
2019-03-27T04:36:24.408Z,55.07
2019-03-27T04:38:56.193Z,50.20
2019-03-27T04:41:27.745Z,48.47
2019-03-27T04:43:59.504Z,46.70
2019-03-27T04:46:31.084Z,44.37
2019-03-27T04:49:07.613Z,45.53
2019-03-27T04:51:37.318Z,48.40
2019-03-27T04:54:09.084Z,49.43
2019-03-27T04:56:40.944Z,48.10
2019-03-27T04:59:12.604Z,47.97
2019-03-27T05:01:44.181Z,46.80
2019-03-27T05:04:16.118Z,49.80
2019-03-27T05:06:47.583Z,46.03
2019-03-27T05:09:19.326Z,42.43
2019-03-27T05:11:51.206Z,44.63
2019-03-27T05:14:22.966Z,44.07
2019-03-27T05:16:54.814Z,46.77
2019-03-27T05:19:26.383Z,43.97
2019-03-27T05:21:58.353Z,46.07
2019-03-27T05:24:30.006Z,43.20
2019-03-27T05:27:01.969Z,38.33
2019-03-27T05:29:33.529Z,38.50
2019-03-27T05:32:04.977Z,37.83
2019-03-27T05:34:36.734Z,36.48
2019-03-27T05:37:08.481Z,37.48
2019-03-27T05:39:40.264Z,37.75
2019-03-27T05:42:12.210Z,32.28
2019-03-27T05:44:43.980Z,29.07
2019-03-27T05:47:15.829Z,27.05
2019-03-27T05:49:47.692Z,28.10
2019-03-27T05:52:19.165Z,29.55
2019-03-27T05:54:50.694Z,27.35
2019-03-27T05:57:22.576Z,27.45
2019-03-27T05:59:54.128Z,28.83
2019-03-27T06:02:25.885Z,27.50
2019-03-27T06:04:58.352Z,27.55
2019-03-27T06:07:30.224Z,25.15
2019-03-27T06:10:02.002Z,24.60
2019-03-27T06:12:33.673Z,25.10
2019-03-27T06:15:06.569Z,24.00
2019-03-27T06:17:38.185Z,26.25
2019-03-27T06:20:10.156Z,24.02
2019-03-27T06:22:41.626Z,22.95
2019-03-27T06:25:13.268Z,22.98
2019-03-27T06:27:45.116Z,22.87
2019-03-27T06:30:16.726Z,20.68
2019-03-27T06:32:48.238Z,20.70
2019-03-27T06:35:20.395Z,20.45
2019-03-27T06:37:51.873Z,19.35
2019-03-27T06:40:23.630Z,18.32
2019-03-27T06:42:55.058Z,18.85
2019-03-27T06:45:26.727Z,17.62
2019-03-27T06:47:58.382Z,16.10
2019-03-27T06:50:29.932Z,16.97
2019-03-27T06:53:01.692Z,15.18
2019-03-27T06:55:33.435Z,15.85
2019-03-27T06:58:05.195Z,15.10
2019-03-27T07:00:37.460Z,15.32
2019-03-27T07:03:09.041Z,14.83
2019-03-27T07:05:40.783Z,13.93
2019-03-27T07:08:12.450Z,14.75
2019-03-27T07:10:44.313Z,13.75
2019-03-27T07:13:15.990Z,12.53
2019-03-27T07:15:47.834Z,11.80
2019-03-27T07:18:19.705Z,9.60
2019-03-27T07:20:51.512Z,8.75
2019-03-27T07:23:22.922Z,8.68
2019-03-27T07:25:54.652Z,7.72
2019-03-27T07:28:27.540Z,7.67
2019-03-27T07:30:59.422Z,7.53
2019-03-27T07:33:31.161Z,7.55
2019-03-27T07:36:02.738Z,7.62
2019-03-27T07:38:34.876Z,7.80
2019-03-27T07:41:06.242Z,6.15
2019-03-27T07:43:37.859Z,5.83
2019-03-27T07:46:09.653Z,6.33
2019-03-27T07:48:53.215Z,6.30
2019-03-27T07:51:14.315Z,4.78
2019-03-27T07:53:47.010Z,5.22
2019-03-27T07:56:18.660Z,5.58
2019-03-27T07:58:50.211Z,5.80
2019-03-27T08:01:21.668Z,5.47
2019-03-27T08:03:56.399Z,6.60
2019-03-27T08:06:28.056Z,6.78
2019-03-27T08:08:59.806Z,7.08
2019-03-27T08:11:31.422Z,6.83
2019-03-27T08:14:02.929Z,7.65
2019-03-27T08:16:34.668Z,5.78
2019-03-27T08:19:08.022Z,5.97
2019-03-27T08:21:40.666Z,5.47
2019-03-27T08:24:12.216Z,4.80
2019-03-27T08:26:43.887Z,4.90
2019-03-27T08:29:15.617Z,5.25
2019-03-27T08:31:46.977Z,5.22
2019-03-27T08:34:18.751Z,5.75
2019-03-27T08:36:50.293Z,4.53
2019-03-27T08:39:21.827Z,4.60
2019-03-27T08:41:53.468Z,4.53
2019-03-27T08:44:25.230Z,5.33
2019-03-27T08:46:56.425Z,6.00
2019-03-27T08:49:27.810Z,6.30
2019-03-27T08:51:59.067Z,7.75
2019-03-27T08:54:31.121Z,22.50
2019-03-27T08:57:03.324Z,5.08
2019-03-27T08:59:35.105Z,4.97
2019-03-27T09:02:06.664Z,5.17
2019-03-27T09:04:38.322Z,4.40
2019-03-27T09:07:09.568Z,3.85
2019-03-27T09:09:41.309Z,4.20
2019-03-27T09:12:12.985Z,4.05
2019-03-27T09:14:44.555Z,4.58
2019-03-27T09:17:15.890Z,12.13
2019-03-27T09:19:47.434Z,7.03
2019-03-27T09:22:20.337Z,8.93
2019-03-27T09:24:52.202Z,4.92
2019-03-27T09:27:23.634Z,5.58
2019-03-27T09:29:55.012Z,6.00
2019-03-27T09:32:26.780Z,5.55
2019-03-27T09:34:58.360Z,4.95
2019-03-27T09:37:30.576Z,5.20
2019-03-27T09:40:02.142Z,5.03
2019-03-27T09:42:34.912Z,4.60
2019-03-27T09:45:09.738Z,5.15
2019-03-27T09:47:41.415Z,4.67
2019-03-27T09:50:14.608Z,4.35
2019-03-27T09:55:21.202Z,4.83
2019-03-27T09:57:52.761Z,6.42
2019-03-27T10:00:44.795Z,5.37
2019-03-27T10:03:16.257Z,5.92
2019-03-27T10:05:47.904Z,5.17
2019-03-27T10:08:19.476Z,7.17
2019-03-27T10:10:51.323Z,7.40
2019-03-27T10:13:22.660Z,5.95
2019-03-27T10:15:54.521Z,5.67
2019-03-27T10:18:26.295Z,7.00
2019-03-27T10:20:57.740Z,5.03
2019-03-27T10:23:29.399Z,5.97
2019-03-27T10:26:01.059Z,5.67
2019-03-27T10:28:32.701Z,6.80
2019-03-27T10:31:06.837Z,6.22
2019-03-27T10:33:38.694Z,6.42
2019-03-27T10:36:10.582Z,6.22
2019-03-27T10:38:42.222Z,7.00
2019-03-27T10:41:13.774Z,7.10
2019-03-27T10:43:45.305Z,7.83
2019-03-27T10:46:16.980Z,6.67
2019-03-27T10:48:52.921Z,7.03
2019-03-27T10:51:22.957Z,7.28
2019-03-27T10:53:54.414Z,6.87
2019-03-27T10:56:25.973Z,12.18
2019-03-27T10:58:57.841Z,8.83
2019-03-27T11:01:29.382Z,7.70
2019-03-27T11:04:01.127Z,9.30
2019-03-27T11:06:32.904Z,7.55
2019-03-27T11:09:07.743Z,10.75
2019-03-27T11:11:39.789Z,8.33
2019-03-27T11:14:11.464Z,7.80
2019-03-27T11:16:43.121Z,7.50
2019-03-27T11:19:14.775Z,8.88
2019-03-27T11:21:46.531Z,7.75
2019-03-27T11:24:18.097Z,7.15
2019-03-27T11:26:49.850Z,8.33
2019-03-27T11:29:21.684Z,7.65
2019-03-27T11:31:53.676Z,7.83
2019-03-27T11:34:25.542Z,7.60
2019-03-27T11:36:57.280Z,7.58
2019-03-27T11:39:28.731Z,8.20
2019-03-27T11:42:00.990Z,7.62
2019-03-27T11:44:32.578Z,9.43
2019-03-27T11:47:04.443Z,9.68
2019-03-27T11:49:35.889Z,7.97
2019-03-27T11:52:07.441Z,9.40
2019-03-27T11:54:39.187Z,10.88
2019-03-27T11:57:11.165Z,11.40
2019-03-27T11:59:53.155Z,10.68
2019-03-27T12:02:16.014Z,9.03
2019-03-27T12:04:47.569Z,10.18
2019-03-27T12:07:19.415Z,11.10
2019-03-27T12:09:51.334Z,10.82
2019-03-27T12:12:22.830Z,9.20
2019-03-27T12:23:08.799Z,12.37
2019-03-27T12:25:40.552Z,11.63
2019-03-27T12:28:12.113Z,10.28
2019-03-27T12:30:45.313Z,11.37
2019-03-27T12:33:17.181Z,13.28
2019-03-27T12:35:48.708Z,12.50
2019-03-27T12:38:20.792Z,13.62
2019-03-27T12:40:52.247Z,13.75
2019-03-27T12:43:24.610Z,17.57
2019-03-27T12:45:56.276Z,17.23
2019-03-27T12:48:28.137Z,17.42
2019-03-27T12:51:12.112Z,19.23
2019-03-27T12:53:33.297Z,14.28
2019-03-27T12:56:04.832Z,16.95
2019-03-27T12:58:36.311Z,14.00
2019-03-27T13:01:08.068Z,16.15
2019-03-27T13:03:39.397Z,17.70
2019-03-27T13:06:11.154Z,15.50
2019-03-27T13:08:42.827Z,15.05
2019-03-27T13:11:14.279Z,13.90
2019-03-27T13:13:45.937Z,14.00
2019-03-27T13:16:17.704Z,14.90
2019-03-27T13:18:49.441Z,14.78
2019-03-27T13:21:26.730Z,16.52
2019-03-27T13:23:54.181Z,15.18
2019-03-27T13:26:25.693Z,14.47
2019-03-27T13:28:57.415Z,11.43
2019-03-27T13:31:29.379Z,11.15
2019-03-27T13:34:01.329Z,23.15
2019-03-27T13:36:33.618Z,17.65
2019-03-27T13:39:07.499Z,19.45
2019-03-27T13:41:39.387Z,18.48
2019-03-27T13:44:11.260Z,15.72
2019-03-27T13:46:43.152Z,17.12
2019-03-27T13:49:14.778Z,16.87
2019-03-27T13:51:46.618Z,15.05
2019-03-27T13:54:18.278Z,13.20
2019-03-27T13:56:49.829Z,14.23
2019-03-27T13:59:22.424Z,17.62
2019-03-27T14:01:54.278Z,16.55
2019-03-27T14:04:26.160Z,17.27
2019-03-27T14:06:57.604Z,16.67
2019-03-27T14:09:29.427Z,16.93
2019-03-27T14:12:01.330Z,18.45
2019-03-27T14:14:33.214Z,18.70
2019-03-27T14:17:04.622Z,20.02
2019-03-27T14:19:36.775Z,17.40
2019-03-27T14:22:08.249Z,17.20
2019-03-27T14:24:39.922Z,18.90
2019-03-27T14:27:11.477Z,20.25
2019-03-27T14:29:45.566Z,21.52
2019-03-27T14:32:18.661Z,20.83
2019-03-27T14:34:53.680Z,20.47
2019-03-27T14:37:23.429Z,21.23
2019-03-27T14:39:55.684Z,21.07
2019-03-27T14:42:27.239Z,20.27
2019-03-27T14:44:58.709Z,19.87
2019-03-27T14:47:30.370Z,20.50
2019-03-27T14:50:02.440Z,20.27
2019-03-27T14:52:34.097Z,21.83
2019-03-27T14:55:07.995Z,20.93
2019-03-27T14:57:40.473Z,23.33
2019-03-27T15:00:12.217Z,23.80
2019-03-27T15:02:44.299Z,31.47
2019-03-27T15:05:16.061Z,29.50
2019-03-27T15:07:48.072Z,36.70
2019-03-27T15:10:19.579Z,40.57
2019-03-27T15:12:51.238Z,34.37
2019-03-27T15:15:22.902Z,34.60
2019-03-27T15:17:54.326Z,40.77
2019-03-27T15:20:26.088Z,40.80
2019-03-27T15:22:57.866Z,35.83
2019-03-27T15:25:29.516Z,42.20
2019-03-27T15:28:01.160Z,38.67
2019-03-27T15:30:33.146Z,38.80
2019-03-27T15:33:06.206Z,37.43
2019-03-27T15:35:37.703Z,38.13
2019-03-27T15:38:09.543Z,38.53
2019-03-27T15:40:45.503Z,38.27
2019-03-27T15:43:18.996Z,36.00
2019-03-27T15:45:50.684Z,35.67
2019-03-27T15:48:22.292Z,35.27
2019-03-27T15:50:58.583Z,34.67
2019-03-27T15:53:27.165Z,34.40
2019-03-27T15:55:59.144Z,37.50
2019-03-27T15:58:30.985Z,39.07
2019-03-27T16:01:04.182Z,41.10
2019-03-27T16:03:35.864Z,39.27
2019-03-27T16:06:07.296Z,40.53
2019-03-27T16:08:39.259Z,39.70
2019-03-27T16:11:10.925Z,32.53
2019-03-27T16:13:42.680Z,34.63
2019-03-27T16:16:14.620Z,36.47
2019-03-27T16:18:46.388Z,37.77
2019-03-27T16:21:18.252Z,37.67
2019-03-27T16:24:05.507Z,38.53
2019-03-27T16:26:25.240Z,33.07
2019-03-27T16:28:56.894Z,34.07
2019-03-27T16:31:28.558Z,37.17
2019-03-27T16:34:03.134Z,37.00
2019-03-27T16:36:34.728Z,39.03
2019-03-27T16:39:07.327Z,43.60
2019-03-27T16:41:38.767Z,43.77
2019-03-27T16:44:14.428Z,45.20
2019-03-27T16:46:46.091Z,45.90
2019-03-27T16:49:18.264Z,44.83
2019-03-27T16:51:49.806Z,46.40
2019-03-27T16:54:21.773Z,49.63
2019-03-27T16:56:54.046Z,49.97
2019-03-27T16:59:25.503Z,53.43
2019-03-27T17:01:57.260Z,52.73
2019-03-27T17:04:28.716Z,54.93
2019-03-27T17:07:00.415Z,56.67
2019-03-27T17:09:32.129Z,53.07
2019-03-27T17:12:03.790Z,57.53
2019-03-27T17:14:35.668Z,60.40
2019-03-27T17:17:07.199Z,62.87
2019-03-27T17:19:39.056Z,65.80
2019-03-27T17:22:19.275Z,70.10
2019-03-27T17:24:44.024Z,73.07
2019-03-27T17:27:15.603Z,70.90
2019-03-27T17:29:47.329Z,75.93
2019-03-27T17:32:19.938Z,68.67
2019-03-27T17:34:52.012Z,72.03
2019-03-27T17:37:23.645Z,67.00
2019-03-27T17:39:55.373Z,57.20
2019-03-27T17:42:27.677Z,56.93
2019-03-27T17:44:59.322Z,55.70
2019-03-27T17:47:31.099Z,57.83
2019-03-27T17:50:02.642Z,49.03
2019-03-27T17:52:38.189Z,46.07
2019-03-27T17:55:09.132Z,48.63
2019-03-27T17:57:40.585Z,44.80
2019-03-27T18:00:15.419Z,44.53
2019-03-27T18:02:46.968Z,46.93
2019-03-27T18:05:18.404Z,47.60
2019-03-27T18:07:50.582Z,47.20
2019-03-27T18:10:22.455Z,46.87
2019-03-27T18:12:54.318Z,52.37
2019-03-27T18:15:26.193Z,51.83
2019-03-27T18:17:57.839Z,48.60
2019-03-27T18:20:29.485Z,47.37
2019-03-27T18:23:01.140Z,42.77
2019-03-27T18:25:33.011Z,43.97
2019-03-27T18:28:04.454Z,43.27
2019-03-27T18:30:36.330Z,47.00
2019-03-27T18:33:08.084Z,41.47
2019-03-27T18:35:39.769Z,44.07
2019-03-27T18:38:11.603Z,38.27
2019-03-27T18:40:43.157Z,34.33
2019-03-27T18:43:14.974Z,31.27
2019-03-27T18:45:46.883Z,28.80
2019-03-27T18:48:18.563Z,27.77
2019-03-27T18:50:50.921Z,26.67
2019-03-27T18:53:22.418Z,25.27
2019-03-27T18:55:54.312Z,24.83
2019-03-27T18:58:25.882Z,23.13
2019-03-27T19:00:57.458Z,22.23
2019-03-27T19:03:29.205Z,21.03
2019-03-27T19:06:00.838Z,21.57
2019-03-27T19:08:32.511Z,22.03
2019-03-27T19:11:03.840Z,21.50
2019-03-27T19:13:35.721Z,23.30
2019-03-27T19:16:07.170Z,23.50
2019-03-27T19:18:38.942Z,23.03
2019-03-27T19:21:10.689Z,19.10
2019-03-27T19:23:42.250Z,14.23
2019-03-27T19:26:14.008Z,13.20
2019-03-27T19:28:45.746Z,16.67
2019-03-27T19:31:17.616Z,18.83
2019-03-27T19:33:49.609Z,22.17
2019-03-27T19:36:21.188Z,22.80
2019-03-27T19:38:53.111Z,19.07
2019-03-27T19:41:25.073Z,18.03
2019-03-27T19:43:56.937Z,18.80
2019-03-27T19:46:28.594Z,21.07
2019-03-27T19:49:00.196Z,25.77
2019-03-27T19:51:32.013Z,25.10
2019-03-27T19:54:03.574Z,28.27
2019-03-27T19:56:35.023Z,28.03
2019-03-27T19:59:06.792Z,29.13
2019-03-27T20:01:38.443Z,28.63
2019-03-27T20:04:11.113Z,28.47
2019-03-27T20:06:43.198Z,28.53
2019-03-27T20:09:14.837Z,29.23
2019-03-27T20:11:46.658Z,28.53
2019-03-27T20:14:18.139Z,25.70
2019-03-27T20:16:49.990Z,26.30
2019-03-27T20:19:21.860Z,27.67
2019-03-27T20:21:53.540Z,28.97
2019-03-27T20:24:25.302Z,30.27
2019-03-27T20:26:56.942Z,31.40
2019-03-27T20:29:28.493Z,30.73
2019-03-27T20:32:00.069Z,33.00
2019-03-27T20:34:31.713Z,29.10
2019-03-27T20:37:03.486Z,31.70
2019-03-27T20:39:35.145Z,32.70
2019-03-27T20:42:06.797Z,34.67
2019-03-27T20:44:38.459Z,33.97
2019-03-27T20:47:10.117Z,36.07
2019-03-27T20:49:41.953Z,36.90
2019-03-27T20:52:13.722Z,38.47
2019-03-27T20:54:54.822Z,37.80
2019-03-27T20:57:18.812Z,37.70
2019-03-27T20:59:50.577Z,38.20
2019-03-27T21:02:22.518Z,36.93
2019-03-27T21:04:54.195Z,36.53
2019-03-27T21:07:25.821Z,37.97
2019-03-27T21:09:57.370Z,33.50
2019-03-27T21:12:28.949Z,33.67
2019-03-27T21:15:00.689Z,32.07
2019-03-27T21:17:32.472Z,33.83
2019-03-27T21:20:05.394Z,28.97
2019-03-27T21:22:36.908Z,30.80
2019-03-27T21:25:09.785Z,31.27
2019-03-27T21:27:41.560Z,28.80
2019-03-27T21:30:13.211Z,28.10
2019-03-27T21:32:44.763Z,27.17
2019-03-27T21:35:16.746Z,28.77
2019-03-27T21:37:48.296Z,28.80
2019-03-27T21:40:19.950Z,28.67
2019-03-27T21:42:51.603Z,28.87
2019-03-27T21:45:23.400Z,28.17
2019-03-27T21:47:55.195Z,26.30
2019-03-27T21:50:26.993Z,26.33
2019-03-27T21:53:00.769Z,26.07
2019-03-27T21:55:42.213Z,27.23
2019-03-27T21:58:04.840Z,25.63
2019-03-27T22:00:39.076Z,26.63
2019-03-27T22:03:10.409Z,26.30
2019-03-27T22:05:42.249Z,25.93
2019-03-27T22:08:13.905Z,28.40
2019-03-27T22:10:45.670Z,29.73
2019-03-27T22:13:18.869Z,29.00
2019-03-27T22:15:51.850Z,30.30
2019-03-27T22:18:23.584Z,30.37
2019-03-27T22:20:55.281Z,30.87
2019-03-27T22:23:26.898Z,31.47
2019-03-27T22:25:58.582Z,31.03
2019-03-27T22:28:30.112Z,31.07
2019-03-27T22:31:02.004Z,31.57
2019-03-27T22:33:33.528Z,34.17
2019-03-27T22:36:05.088Z,33.70
2019-03-27T22:38:36.972Z,36.33
2019-03-27T22:41:08.637Z,34.10
2019-03-27T22:43:40.284Z,33.90
2019-03-27T22:46:11.846Z,35.77
2019-03-27T22:48:43.470Z,35.80
2019-03-27T22:51:15.028Z,37.57
2019-03-27T22:53:46.910Z,33.90
2019-03-27T22:56:18.673Z,35.40
2019-03-27T22:58:50.231Z,33.10
2019-03-27T23:01:21.963Z,31.93
2019-03-27T23:03:53.754Z,31.00
2019-03-27T23:06:25.620Z,31.50
2019-03-27T23:08:57.072Z,30.80
2019-03-27T23:11:28.875Z,29.73
2019-03-27T23:14:00.386Z,32.30
2019-03-27T23:16:32.146Z,30.90
2019-03-27T23:19:03.773Z,30.20
2019-03-27T23:21:35.770Z,31.30
2019-03-27T23:24:08.221Z,27.97
2019-03-27T23:26:40.015Z,26.23
2019-03-27T23:29:11.670Z,25.33
2019-03-27T23:31:44.524Z,26.00
2019-03-27T23:34:16.382Z,23.73
2019-03-27T23:36:48.072Z,25.23
2019-03-27T23:39:19.730Z,24.00
2019-03-27T23:41:51.296Z,25.43
2019-03-27T23:44:23.018Z,25.80
2019-03-27T23:46:54.698Z,26.07
2019-03-27T23:49:27.690Z,24.90
2019-03-27T23:51:59.447Z,25.83
2019-03-27T23:54:31.110Z,26.90
2019-03-27T23:57:02.769Z,24.20
2019-03-27T23:59:34.492Z,24.23
